NEODyS-2

Near Earth Objects - Dynamic Site
NEODyS ∴ Observatories ∴ Site 691 ∴ Obs & residuals
Contact »
691  ▹ 
OBSERVATIONS AND RESIDUALS

691-Steward Observatory, Kitt Peak-Spacewatch

Detections | Residuals | Detections & Residuals

[1-200] [201-400] [401-600] [601-800] [801-1000] [1001-1200] [1201-1400] [1401-1600] [1601-1800] [1801-2000] [2001-2200] [2201-2400] [2401-2600] [2601-2800] [2801-3000] [3001-3200] [3201-3400] [3401-3600] [3601-3800] [3801-4000] [4001-4200] [4201-4400] [4401-4600] [4601-4800] [4801-5000] [5001-5200] [5201-5400] [5401-5600] [5601-5800] [5801-6000] [6001-6200] [6201-6400] [6401-6600] [6601-6800] [6801-7000] [7001-7200] [7201-7400] [7401-7600] [7601-7800] [7801-8000] [8001-8200] [8201-8400] [8401-8600] [8601-8800] [8801-9000] [9001-9200] [9201-9400] [9401-9600] [9601-9800] [9801-10000] [10001-10200] [10201-10400] [10401-10600] [10601-10800] [10801-11000] [11001-11200] [11201-11400] [11401-11600] [11601-11800] [11801-12000] [12001-12200] [12201-12400] [12401-12600] [12601-12800] [12801-13000] [13001-13200] [13201-13400] [13401-13600] [13601-13800] [13801-14000] [14001-14200] [14201-14400] [14401-14600] [14601-14800] [14801-15000] [15001-15200] [15201-15400] [15401-15600] [15601-15800] [15801-16000] [16001-16200] [16201-16400] [16401-16600] [16601-16800] [16801-17000] [17001-17200] [17201-17400] [17401-17600] [17601-17800] [17801-18000] [18001-18200] [18201-18400] [18401-18600] [18601-18800] [18801-19000] [19001-19200] [19201-19400] [19401-19600] [19601-19800] [19801-20000] [20001-20200] [20201-20400] [20401-20600] [20601-20800] [20801-21000] [21001-21200] [21201-21400] [21401-21600] [21601-21800] [21801-22000] [22001-22200] [22201-22400] [22401-22600] [22601-22800] [22801-23000] [23001-23200] [23201-23400] [23401-23600] [23601-23800] [23801-24000] [24001-24200] [24201-24400] [24401-24600] [24601-24800] [24801-25000] [25001-25200] [25201-25400] [25401-25600] [25601-25800] [25801-26000] [26001-26200] [26201-26400] [26401-26600] [26601-26800] [26801-27000] [27001-27200] [27201-27400] [27401-27600] [27601-27800] [27801-28000] [28001-28200] [28201-28400] [28401-28600] [28601-28800] [28801-29000] [29001-29200] [29201-29400] [29401-29600] [29601-29800] [29801-30000] [30001-30200] [30201-30400] [30401-30600] [30601-30800] [30801-31000] [31001-31200] [31201-31400] [31401-31600] [31601-31800] [31801-32000] [32001-32200] [32201-32400] [32401-32600] [32601-32800] [32801-33000] [33001-33200] [33201-33400] [33401-33600] [33601-33800] [33801-34000] [34001-34200] [34201-34400] [34401-34600] [34601-34800] [34801-35000] [35001-35200] [35201-35400] [35401-35600] [35601-35800] [35801-36000] [36001-36200] [36201-36400] [36401-36600] [36601-36800] [36801-37000] [37001-37200] [37201-37400] [37401-37600] [37601-37800] [37801-38000] [38001-38200] [38201-38400] [38401-38600] [38601-38800] [38801-39000] [39001-39200] [39201-39400] [39401-39600] [39601-39800] [39801-40000] [40001-40200] [40201-40400] [40401-40600] [40601-40800] [40801-41000] [41001-41200] [41201-41400] [41401-41600] [41601-41800] [41801-42000] [42001-42200] [42201-42400] [42401-42600] [42601-42800] [42801-43000] [43001-43200] [43201-43400] [43401-43600] [43601-43800] [43801-44000] [44001-44200] [44201-44400] [44401-44600] [44601-44800] [44801-45000] [45001-45200] [45201-45400] [45401-45600] [45601-45800] [45801-46000] [46001-46200] [46201-46400] [46401-46600] [46601-46800] [46801-47000] [47001-47200] [47201-47400] [47401-47600] [47601-47800] [47801-48000] [48001-48200] [48201-48400] [48401-48600] [48601-48800] [48801-49000] [49001-49200] [49201-49400] [49401-49600] [49601-49800] [49801-50000] [50001-50200] [50201-50400] [50401-50600] [50601-50741]

Designation T Tech N Date Right Ascension Declination Apparent Magnitude Star Catalog Site code χ Used A Used M
yr-mo-day precision hr:min:sec precision rms F bias residual deg min sec precision rms F bias residual mag/col rms residual
2017YF7 O C 2018-01-24.35591 1.000E-05 09:20:00.990 1.500E-01 0.612 F 0.165 -0.369 +04° 28' 41.80" 1.000E-01 0.612 F 0.174 -0.286 20.2 V 0.70 0.29 o 691 0.77 Yes Yes
2011EB7 O C 2018-01-24.37213 1.000E-05 08:15:50.690 1.500E-01 0.500 F 0.048 -0.008 -05° 23' 50.00" 1.000E-01 0.500 F 0.033 -0.236 19.4 V 0.70 0.09 o 691 0.48 Yes Yes
2017YR3 O C K 2018-01-24.37404 1.000E-05 08:08:46.830 1.500E-01 0.500 F -0.018 -0.307 +00° 50' 23.10" 1.000E-01 0.500 F 0.074 -0.248 o 691 0.84 Yes No
2011EB7 O C 2018-01-24.39023 1.000E-05 08:15:50.880 1.500E-01 0.500 F 0.048 -0.327 -05° 23' 04.00" 1.000E-01 0.500 F 0.033 -0.067 19.4 V 0.70 0.09 o 691 0.68 Yes Yes
2017YR3 O C K 2018-01-24.39214 1.000E-05 08:08:47.760 1.500E-01 0.500 F -0.018 0.115 +00° 50' 40.50" 1.000E-01 0.500 F 0.074 -0.036 o 691 0.25 Yes No
2011EB7 O C 2018-01-24.40837 1.000E-05 08:15:51.050 1.500E-01 0.500 F 0.048 -1.147 -05° 22' 17.30" 1.000E-01 0.500 F 0.033 0.674 20.2 V 0.70 0.89 o 691 2.69 Yes Yes
2017YR3 O C K 2018-01-24.41028 1.000E-05 08:08:48.710 1.500E-01 0.500 F -0.018 0.414 +00° 50' 57.60" 1.000E-01 0.500 F 0.074 -0.146 o 691 0.93 Yes No
2018BL1 O C K 2018-01-24.42634 1.000E-05 09:49:52.610 1.500E-01 0.500 F 0.052 0.721 +13° 53' 22.90" 1.000E-01 0.500 F 0.315 -0.320 o 691 1.59 Yes No
2009EV O C 2018-01-24.43044 1.000E-05 09:22:32.700 1.500E-01 0.612 F 0.201 -0.226 +05° 08' 34.30" 1.000E-01 0.612 F 0.217 -0.211 19.7 V 0.70 0.05 o 691 0.51 Yes Yes
2017YF7 O C H 2018-01-24.43044 1.000E-05 09:19:54.290 1.500E-01 0.612 F 0.165 0.102 +04° 24' 08.20" 1.000E-01 0.612 F 0.174 0.092 19.4 R 0.70 -0.11 o 691 0.23 Yes Yes
2018AF13 O C K 2018-01-24.43166 1.000E-05 09:38:58.690 1.500E-01 0.500 F 0.055 -0.104 +04° 08' 48.10" 1.000E-01 0.500 F 0.200 0.086 o 691 0.29 Yes No
2018BL1 O C K 2018-01-24.43669 1.000E-05 09:49:54.270 1.500E-01 0.500 F 0.052 -0.282 +13° 53' 34.30" 1.000E-01 0.500 F 0.315 -0.017 o 691 0.57 Yes No
2009EV O C 2018-01-24.44078 1.000E-05 09:22:31.360 1.500E-01 0.612 F 0.201 -0.351 +05° 09' 05.20" 1.000E-01 0.612 F 0.217 -0.069 19.6 V 0.70 -0.05 o 691 0.59 Yes Yes
2017YF7 O C H 2018-01-24.44078 1.000E-05 09:19:53.350 1.500E-01 0.612 F 0.165 -0.373 +04° 23' 30.30" 1.000E-01 0.612 F 0.174 0.265 19.4 R 0.70 -0.11 o 691 0.75 Yes Yes
2018AF13 O C K 2018-01-24.44201 1.000E-05 09:38:56.560 1.500E-01 0.500 F 0.055 -0.171 +04° 08' 23.90" 1.000E-01 0.500 F 0.200 -0.062 o 691 0.39 Yes No
2018BL1 O C K 2018-01-24.44702 1.000E-05 09:49:56.030 1.500E-01 0.500 F 0.052 0.133 +13° 53' 45.10" 1.000E-01 0.500 F 0.315 -0.271 o 691 0.61 Yes No
2009EV O C 2018-01-24.45111 1.000E-05 09:22:30.040 1.500E-01 0.612 F 0.201 -0.237 +05° 09' 35.90" 1.000E-01 0.612 F 0.217 -0.085 19.7 V 0.70 0.05 o 691 0.41 Yes Yes
2017YF7 O C H 2018-01-24.45111 1.000E-05 09:19:52.490 1.500E-01 0.612 F 0.165 0.187 +04° 22' 52.50" 1.000E-01 0.612 F 0.174 0.513 19.4 R 0.70 -0.11 o 691 0.90 Yes Yes
2018AF13 O C K 2018-01-24.45234 1.000E-05 09:38:54.470 1.500E-01 0.500 F 0.055 0.260 +04° 08' 00.00" 1.000E-01 0.500 F 0.200 0.041 o 691 0.57 Yes No
2018AG2 O C K 2018-01-24.45789 1.000E-05 10:26:00.140 1.500E-01 0.500 F 0.082 -0.198 -16° 24' 57.10" 1.000E-01 0.500 F -0.112 -0.307 o 691 0.73 Yes No
2015DP155 O C K 2018-01-24.46469 1.000E-05 11:39:29.610 1.500E-01 0.500 F 0.019 0.227 +15° 37' 33.60" 1.000E-01 0.500 F 0.269 0.492 o 691 1.08 Yes No
2018AG2 O C K 2018-01-24.47222 1.000E-05 10:25:59.040 1.500E-01 0.500 F 0.082 -0.050 -16° 24' 27.20" 1.000E-01 0.500 F -0.112 -0.199 o 691 0.41 Yes No
2015DP155 O C K 2018-01-24.47892 1.000E-05 11:39:30.710 1.500E-01 0.500 F 0.019 -0.065 +15° 37' 42.60" 1.000E-01 0.500 F 0.269 0.356 o 691 0.73 Yes No
2018AG2 O C K 2018-01-24.48645 1.000E-05 10:25:57.940 1.500E-01 0.500 F 0.082 -0.053 -16° 23' 57.40" 1.000E-01 0.500 F -0.112 -0.023 o 691 0.12 Yes No
2015DP155 O C K 2018-01-24.49313 1.000E-05 11:39:31.850 1.500E-01 0.500 F 0.019 0.224 +15° 37' 51.60" 1.000E-01 0.500 F 0.269 0.264 o 691 0.69 Yes No
2007WB O C K 2018-01-24.50377 1.000E-05 12:28:48.960 1.500E-01 0.500 F 0.180 -0.300 +21° 54' 10.00" 1.000E-01 0.500 F 0.240 -0.280 o 691 0.82 Yes No
2017XH62 O C H 2018-01-24.51206 1.000E-05 12:32:56.530 1.500E-01 0.500 F 0.050 0.037 +15° 19' 12.10" 1.000E-01 0.500 F 0.189 -0.034 19.6 R 0.70 0.17 o 691 0.10 Yes Yes
2007WB O C K 2018-01-24.51386 1.000E-05 12:28:49.610 1.500E-01 0.500 F 0.180 0.067 +21° 54' 19.70" 1.000E-01 0.500 F 0.240 -0.221 o 691 0.46 Yes No
2017XH62 O C H 2018-01-24.52238 1.000E-05 12:32:59.240 1.500E-01 0.500 F 0.050 -0.045 +15° 19' 12.40" 1.000E-01 0.500 F 0.189 -0.099 19.5 R 0.70 0.07 o 691 0.22 Yes Yes
2007WB O C K 2018-01-24.52419 1.000E-05 12:28:50.250 1.500E-01 0.500 F 0.180 0.084 +21° 54' 29.90" 1.000E-01 0.500 F 0.240 0.117 o 691 0.29 Yes No
2017XH62 O C H 2018-01-24.53303 1.000E-05 12:33:02.040 1.500E-01 0.500 F 0.050 -0.101 +15° 19' 12.70" 1.000E-01 0.500 F 0.189 -0.149 19.5 R 0.70 0.07 o 691 0.36 Yes Yes
2017TH6 O C K 2018-01-24.53809 1.000E-05 14:49:26.930 1.500E-01 0.500 F 0.179 -0.102 -11° 23' 38.20" 1.000E-01 0.500 F 0.106 0.363 21.2 R 0.70 0.85 o 691 0.79 Yes Yes
2017TH6 O C K 2018-01-24.54470 1.000E-05 14:49:26.010 1.500E-01 0.500 F 0.179 0.173 -11° 23' 46.40" 1.000E-01 0.500 F 0.106 0.336 20.6 R 0.70 0.25 o 691 0.81 Yes Yes
2018BY2 O C 2018-01-25.13970 1.000E-05 05:30:33.590 1.500E-01 0.500 F -0.068 -0.548 -18° 50' 36.70" 1.000E-01 0.500 F -0.092 -0.249 19.4 V 0.70 -0.24 o 691 1.21 Yes Yes
2018BY2 O C 2018-01-25.14392 1.000E-05 05:30:33.300 1.500E-01 0.500 F -0.068 -0.356 -18° 50' 39.40" 1.000E-01 0.500 F -0.092 -0.280 19.3 V 0.70 -0.34 o 691 0.91 Yes Yes
2018BY2 O C 2018-01-25.14815 1.000E-05 05:30:32.990 1.500E-01 0.500 F -0.068 -0.433 -18° 50' 41.80" 1.000E-01 0.500 F -0.092 -0.012 19.3 V 0.70 -0.34 o 691 0.87 Yes Yes
2018BP3 O C K 2018-01-25.15539 1.000E-05 08:49:28.430 1.500E-01 0.500 F 0.117 -0.292 +20° 22' 31.80" 1.000E-01 0.500 F 0.219 -0.489 o 691 1.19 Yes No
2018BP3 O C K 2018-01-25.16110 1.000E-05 08:49:27.150 1.500E-01 0.500 F 0.117 -0.584 +20° 22' 03.50" 1.000E-01 0.500 F 0.219 0.544 o 691 1.68 Yes No
2018BP3 O C K 2018-01-25.16678 1.000E-05 08:49:25.910 1.500E-01 0.500 F 0.117 -0.034 +20° 21' 34.10" 1.000E-01 0.500 F 0.219 0.340 o 691 0.71 Yes No
2018AB4 O C K 2018-01-25.17300 1.000E-05 08:22:26.600 1.500E-01 0.500 F 0.054 0.057 +28° 58' 34.30" 1.000E-01 0.500 F 0.215 0.263 o 691 0.65 Yes No
2018AB4 O C K 2018-01-25.19190 1.000E-05 08:22:26.340 1.500E-01 0.500 F 0.054 0.025 +28° 59' 01.30" 1.000E-01 0.500 F 0.215 -0.094 o 691 0.23 Yes No
2018AB4 O C K 2018-01-25.21080 1.000E-05 08:22:26.040 1.500E-01 0.500 F 0.054 0.031 +28° 59' 28.20" 1.000E-01 0.500 F 0.215 -0.249 o 691 0.61 Yes No
2018BL1 O C K 2018-01-25.26701 1.000E-05 09:52:35.920 1.500E-01 0.500 F 0.021 0.024 +14° 09' 30.10" 1.000E-01 0.500 F 0.281 -0.017 o 691 0.06 Yes No
2018BL1 O C K 2018-01-25.27141 1.000E-05 09:52:36.740 1.500E-01 0.500 F 0.021 -0.041 +14° 09' 35.30" 1.000E-01 0.500 F 0.281 -0.337 o 691 0.68 Yes No
2018BL1 O C K 2018-01-25.27579 1.000E-05 09:52:37.570 1.500E-01 0.500 F 0.021 0.107 +14° 09' 40.70" 1.000E-01 0.500 F 0.281 -0.429 o 691 0.89 Yes No
2018AB12 O C K 2018-01-25.28041 1.000E-05 09:12:12.650 1.500E-01 0.500 F 0.073 0.033 +01° 46' 47.60" 1.000E-01 0.500 F 0.152 -0.164 o 691 0.34 Yes No
2018AB12 O C K 2018-01-25.28832 1.000E-05 09:12:09.480 1.500E-01 0.500 F 0.073 0.229 +01° 46' 18.60" 1.000E-01 0.500 F 0.152 -0.015 o 691 0.46 Yes No
2018AB12 O C K 2018-01-25.29619 1.000E-05 09:12:06.290 1.500E-01 0.500 F 0.073 -0.076 +01° 45' 49.50" 1.000E-01 0.500 F 0.152 -0.122 o 691 0.29 Yes No
2018AE4 O C K 2018-01-25.30772 1.000E-05 09:39:04.990 1.500E-01 0.500 F 0.025 -0.281 -03° 16' 35.80" 1.000E-01 0.500 F 0.107 -0.080 o 691 0.59 Yes No
2018AE4 O C K 2018-01-25.31506 1.000E-05 09:39:03.320 1.500E-01 0.500 F 0.025 0.078 -03° 16' 50.00" 1.000E-01 0.500 F 0.107 0.022 o 691 0.16 Yes No
2018AE4 O C K 2018-01-25.32239 1.000E-05 09:39:01.620 1.500E-01 0.500 F 0.025 -0.024 -03° 17' 03.90" 1.000E-01 0.500 F 0.107 0.379 o 691 0.77 Yes No
2006AL4 O C K 2018-01-25.33139 1.000E-05 10:45:43.780 1.500E-01 0.500 F 0.121 2.616 +30° 05' 56.70" 1.000E-01 0.500 F 0.384 -0.623 o 691 5.10 No No
2006AL4 O C K 2018-01-25.33437 1.000E-05 10:45:46.820 1.500E-01 0.500 F 0.121 1.380 +30° 05' 46.90" 1.000E-01 0.500 F 0.384 -0.325 o 691 3.01 Yes No
2006AL4 O C K 2018-01-25.33734 1.000E-05 10:45:49.850 1.500E-01 0.500 F 0.121 0.179 +30° 05' 37.00" 1.000E-01 0.500 F 0.384 -0.137 o 691 0.48 Yes No
2017YM6 O C K 2018-01-25.35606 1.000E-05 08:58:25.160 1.500E-01 0.500 F 0.058 -0.306 +20° 03' 06.90" 1.000E-01 0.500 F 0.225 0.315 19.3 R 0.70 0.32 o 691 0.89 Yes Yes
2017YM6 O C K 2018-01-25.35810 1.000E-05 08:58:24.180 1.500E-01 0.500 F 0.058 -0.392 +20° 02' 58.50" 1.000E-01 0.500 F 0.225 -0.095 19.2 R 0.70 0.22 o 691 0.83 Yes Yes
2017YM6 O C K 2018-01-25.36014 1.000E-05 08:58:23.240 1.500E-01 0.500 F 0.058 0.083 +20° 02' 50.40" 1.000E-01 0.500 F 0.225 -0.202 19.4 R 0.70 0.42 o 691 0.44 Yes Yes
1977QQ5 O C 2018-01-25.36274 1.000E-05 07:46:33.670 1.500E-01 0.500 F 0.051 -0.079 +08° 23' 53.80" 1.000E-01 0.500 F 0.119 0.008 17.0 V 0.70 0.20 o 691 0.16 Yes Yes
2018AH12 O C K 2018-01-25.36274 1.000E-05 07:47:55.970 1.500E-01 0.500 F 0.055 0.242 +08° 15' 19.50" 1.000E-01 0.500 F 0.076 -0.054 o 691 0.55 Yes No
1977QQ5 O C 2018-01-25.36493 1.000E-05 07:46:33.500 1.500E-01 0.500 F 0.051 -0.194 +08° 23' 57.40" 1.000E-01 0.500 F 0.119 0.060 17.0 V 0.70 0.20 o 691 0.41 Yes Yes
2018AH12 O C K 2018-01-25.36493 1.000E-05 07:47:55.450 1.500E-01 0.500 F 0.055 -0.283 +08° 15' 36.00" 1.000E-01 0.500 F 0.076 0.516 o 691 1.28 Yes No
1977QQ5 O C 2018-01-25.36711 1.000E-05 07:46:33.340 1.500E-01 0.500 F 0.051 -0.173 +08° 24' 00.80" 1.000E-01 0.500 F 0.119 -0.072 17.0 V 0.70 0.20 o 691 0.38 Yes Yes
2018AH12 O C K 2018-01-25.36711 1.000E-05 07:47:54.980 1.500E-01 0.500 F 0.055 -0.116 +08° 15' 51.70" 1.000E-01 0.500 F 0.076 0.358 o 691 0.81 Yes No
2018AF3 O C K 2018-01-25.41672 1.000E-05 08:29:14.980 1.500E-01 0.500 F -0.026 0.189 +14° 11' 51.90" 1.000E-01 0.500 F 0.175 -0.127 20.2 R 0.70 -0.58 o 691 0.47 Yes Yes
2018AF3 O C K 2018-01-25.42165 1.000E-05 08:29:14.370 1.500E-01 0.500 F -0.026 -0.021 +14° 12' 00.60" 1.000E-01 0.500 F 0.175 0.042 o 691 0.10 Yes No
2018AF3 O C K 2018-01-25.42655 1.000E-05 08:29:13.790 1.500E-01 0.500 F -0.026 0.138 +14° 12' 09.20" 1.000E-01 0.500 F 0.175 0.167 o 691 0.44 Yes No
2018BO1 O C K 2018-01-25.43708 1.000E-05 10:11:58.960 1.500E-01 0.500 F 0.229 -1.686 +27° 29' 04.30" 1.000E-01 0.500 F 0.261 0.401 o 691 3.46 No No
2018BO1 O C K 2018-01-25.44933 1.000E-05 10:11:57.340 1.500E-01 0.500 F 0.229 -1.512 +27° 29' 06.90" 1.000E-01 0.500 F 0.261 0.415 o 691 3.14 Yes No
2018BO1 O C K 2018-01-25.46158 1.000E-05 10:11:55.750 1.500E-01 0.500 F 0.229 -0.956 +27° 29' 09.30" 1.000E-01 0.500 F 0.261 0.256 o 691 1.99 Yes No
2017YS8 O C 2018-01-25.48038 1.000E-05 14:49:42.760 1.500E-01 0.500 F 0.082 -0.357 +28° 31' 56.40" 1.000E-01 0.500 F 0.123 -0.057 18.2 V 0.70 0.02 o 691 0.74 Yes Yes
2017YS8 O C 2018-01-25.48144 1.000E-05 14:49:43.200 1.500E-01 0.500 F 0.082 -0.246 +28° 31' 51.10" 1.000E-01 0.500 F 0.123 -0.066 18.4 V 0.70 0.22 o 691 0.52 Yes Yes
2017YS8 O C 2018-01-25.48252 1.000E-05 14:49:43.640 1.500E-01 0.500 F 0.082 -0.243 +28° 31' 45.90" 1.000E-01 0.500 F 0.123 0.127 18.2 V 0.70 0.02 o 691 0.56 Yes Yes
2017XC62 O C K 2018-01-25.49545 1.000E-05 13:42:18.770 1.500E-01 0.500 F 0.352 1.745 -22° 56' 20.70" 1.000E-01 0.500 F 0.035 -0.496 o 691 3.57 No No
2017XC62 O C K 2018-01-25.52806 1.000E-05 13:42:24.590 1.500E-01 0.500 F 0.352 1.709 -22° 58' 06.00" 1.000E-01 0.500 F 0.035 0.634 o 691 3.60 No No
2010CR1 O C H 2018-01-25.55644 1.000E-05 15:20:41.540 1.500E-01 0.500 F 0.311 0.121 -29° 52' 04.40" 1.000E-01 0.500 F 0.381 -0.350 18.0 R 0.70 -0.22 o 691 0.83 Yes Yes
2010CR1 O C H 2018-01-25.55744 1.000E-05 15:20:40.790 1.500E-01 0.500 F 0.311 0.064 -29° 52' 08.30" 1.000E-01 0.500 F 0.381 0.267 18.2 R 0.70 -0.02 o 691 0.63 Yes Yes
2015FH120 O C 2018-01-25.56064 1.000E-05 17:22:24.460 1.500E-01 0.500 F 0.057 -0.254 +22° 33' 07.40" 1.000E-01 0.500 F 0.211 0.018 19.4 V 0.70 0.38 o 691 0.52 Yes Yes
2015FH120 O C 2018-01-25.56173 1.000E-05 17:22:24.030 1.500E-01 0.500 F 0.057 -0.290 +22° 33' 09.40" 1.000E-01 0.500 F 0.211 -0.040 19.4 V 0.70 0.38 o 691 0.60 Yes Yes
2015FH120 O C 2018-01-25.56282 1.000E-05 17:22:23.580 1.500E-01 0.500 F 0.057 -0.602 +22° 33' 11.50" 1.000E-01 0.500 F 0.211 0.003 19.2 V 0.70 0.18 o 691 1.22 Yes Yes
2017WH14 O C K 2018-01-26.09367 1.000E-05 00:54:00.710 1.500E-01 0.500 F -0.287 0.026 -23° 58' 59.60" 1.000E-01 0.500 F 0.509 0.239 o 691 0.49 Yes No
2017WH14 O C K 2018-01-26.09921 1.000E-05 00:54:01.140 1.500E-01 0.500 F -0.287 -0.164 -23° 58' 54.10" 1.000E-01 0.500 F 0.509 -0.125 o 691 0.43 Yes No
2018BP1 O C K 2018-01-26.16521 1.000E-05 07:59:36.870 1.500E-01 0.500 F -0.006 -0.265 +18° 41' 53.70" 1.000E-01 0.500 F 0.259 -0.018 18.6 R 0.70 0.35 o 691 0.55 Yes Yes
2018BP1 O C K 2018-01-26.16709 1.000E-05 07:59:34.530 1.500E-01 0.500 F -0.006 -0.760 +18° 42' 12.10" 1.000E-01 0.500 F 0.259 -0.284 18.6 R 0.70 0.35 o 691 1.68 Yes Yes
2018BP1 O C K 2018-01-26.16897 1.000E-05 07:59:32.260 1.500E-01 0.500 F -0.006 -0.244 +18° 42' 30.60" 1.000E-01 0.500 F 0.259 -0.444 18.4 R 0.70 0.15 o 691 1.04 Yes Yes
2017YM6 O C K 2018-01-26.17539 1.000E-05 08:52:25.930 1.500E-01 0.500 F 0.055 -1.829 +19° 09' 30.50" 1.000E-01 0.500 F 0.257 0.728 18.6 R 0.70 -0.29 o 691 3.87 No Yes
2017YM6 O C K 2018-01-26.17840 1.000E-05 08:52:24.680 1.500E-01 0.500 F 0.055 -0.058 +19° 09' 18.40" 1.000E-01 0.500 F 0.257 0.104 18.9 R 0.70 0.01 o 691 0.24 Yes Yes
2002DB4 O C 2018-01-27.09402 1.000E-05 03:31:59.260 1.500E-01 0.500 F -0.255 -0.166 -28° 50' 32.30" 1.000E-01 0.500 F 0.161 0.101 17.0 V 0.70 0.32 o 691 0.40 Yes Yes
2018AM12 O C K 2018-01-27.09402 1.000E-05 03:31:32.240 1.500E-01 0.500 F -0.255 0.938 -29° 05' 17.80" 1.000E-01 0.500 F 0.161 -0.054 o 691 1.89 Yes No
2018AM12 O C K 2018-01-27.09900 1.000E-05 03:31:33.700 1.500E-01 0.500 F -0.255 0.962 -29° 05' 31.50" 1.000E-01 0.500 F 0.161 -0.049 o 691 1.94 Yes No
2002DB4 O C 2018-01-27.10149 1.000E-05 03:32:00.900 1.500E-01 0.500 F -0.255 -0.304 -28° 50' 15.90" 1.000E-01 0.500 F 0.161 0.127 16.8 V 0.70 0.12 o 691 0.67 Yes Yes
2002DB4 O C 2018-01-27.10893 1.000E-05 03:32:02.560 1.500E-01 0.500 F -0.255 -0.084 -28° 49' 59.60" 1.000E-01 0.500 F 0.161 0.099 16.8 V 0.70 0.12 o 691 0.26 Yes Yes
2018AM12 O C K 2018-01-27.11142 1.000E-05 03:31:37.330 1.500E-01 0.500 F -0.255 0.917 -29° 06' 05.30" 1.000E-01 0.500 F 0.161 0.171 o 691 1.87 Yes No
2018BP1 O C K 2018-01-27.12938 1.000E-05 07:40:42.460 1.500E-01 0.500 F -0.106 -3.706 +21° 11' 33.40" 1.000E-01 0.500 F 0.359 -0.333 o 691 7.16 No No
2018BP1 O C K 2018-01-27.13728 1.000E-05 07:40:32.900 1.500E-01 0.500 F -0.106 -3.393 +21° 12' 46.10" 1.000E-01 0.500 F 0.359 -0.073 o 691 6.52 No No
2018BP1 O C K 2018-01-27.14519 1.000E-05 07:40:23.230 1.500E-01 0.500 F -0.106 -4.169 +21° 13' 58.20" 1.000E-01 0.500 F 0.359 -0.364 o 691 8.04 No No
2017YF7 O C K 2018-01-27.20952 1.000E-05 09:17:01.750 1.500E-01 0.500 F 0.075 -0.216 +01° 37' 58.80" 1.000E-01 0.500 F 0.197 0.084 o 691 0.47 Yes No
2017YF7 O C K 2018-01-27.21381 1.000E-05 09:17:01.340 1.500E-01 0.500 F 0.075 -0.907 +01° 37' 43.50" 1.000E-01 0.500 F 0.197 -0.242 o 691 1.90 Yes No
2017YF7 O C K 2018-01-27.21810 1.000E-05 09:17:01.040 1.500E-01 0.500 F 0.075 0.089 +01° 37' 28.70" 1.000E-01 0.500 F 0.197 -0.067 o 691 0.22 Yes No
2017YM6 O C 2018-01-27.22248 1.000E-05 08:44:49.810 1.500E-01 0.500 F 0.016 -0.199 +18° 00' 52.50" 1.000E-01 0.500 F 0.130 0.042 19.6 R 0.70 0.86 o 691 0.41 Yes Yes
2017YM6 O C 2018-01-27.22709 1.000E-05 08:44:47.710 1.500E-01 0.500 F 0.016 -0.365 +18° 00' 34.50" 1.000E-01 0.500 F 0.130 -0.128 19.5 R 0.70 0.76 o 691 0.79 Yes Yes
2017YM6 O C 2018-01-27.23172 1.000E-05 08:44:45.630 1.500E-01 0.500 F 0.016 -0.088 +18° 00' 16.70" 1.000E-01 0.500 F 0.130 -0.007 18.7 R 0.70 -0.04 o 691 0.18 Yes Yes
2018BL1 O C K 2018-01-27.23373 1.000E-05 10:00:03.680 1.500E-01 0.500 F 0.056 0.154 +14° 55' 04.50" 1.000E-01 0.500 F 0.260 -0.057 o 691 0.33 Yes No
2018BL1 O C K 2018-01-27.24128 1.000E-05 10:00:05.530 1.500E-01 0.500 F 0.056 0.127 +14° 55' 16.80" 1.000E-01 0.500 F 0.260 -0.165 o 691 0.42 Yes No
2018BL1 O C K 2018-01-27.24882 1.000E-05 10:00:07.410 1.500E-01 0.500 F 0.056 0.620 +14° 55' 29.00" 1.000E-01 0.500 F 0.260 -0.352 o 691 1.44 Yes No
2018AM13 O C K 2018-01-27.25644 1.000E-05 09:51:29.710 1.500E-01 0.500 F 0.075 -0.401 +24° 27' 16.10" 1.000E-01 0.500 F 0.321 0.192 o 691 0.91 Yes No
2018AM13 O C K 2018-01-27.26539 1.000E-05 09:51:28.660 1.500E-01 0.500 F 0.075 -0.526 +24° 27' 56.40" 1.000E-01 0.500 F 0.321 0.044 o 691 1.08 Yes No
2018AM13 O C K 2018-01-27.27433 1.000E-05 09:51:27.620 1.500E-01 0.500 F 0.075 -0.474 +24° 28' 36.80" 1.000E-01 0.500 F 0.321 0.085 o 691 0.99 Yes No
2018BG3 O C 2018-01-27.29083 1.000E-05 09:40:28.480 1.500E-01 0.500 F 0.042 -0.376 +22° 42' 11.50" 1.000E-01 0.500 F 0.239 0.056 19.0 R 0.70 0.33 o 691 0.79 Yes Yes
2018BG3 O C 2018-01-27.29491 1.000E-05 09:40:27.510 1.500E-01 0.500 F 0.042 0.066 +22° 41' 30.20" 1.000E-01 0.500 F 0.239 -0.120 18.7 R 0.70 0.03 o 691 0.29 Yes Yes
2018BG3 O C 2018-01-27.29900 1.000E-05 09:40:26.500 1.500E-01 0.500 F 0.042 0.029 +22° 40' 49.10" 1.000E-01 0.500 F 0.239 0.067 18.9 R 0.70 0.23 o 691 0.16 Yes Yes
2018BN6 O C K 2018-01-27.30200 1.000E-05 08:06:58.390 1.500E-01 0.500 F 0.067 -0.013 +05° 30' 11.70" 1.000E-01 0.500 F 0.087 -0.095 18.3 R 0.70 -0.11 o 691 0.20 Yes Yes
2018BN6 O C K 2018-01-27.30605 1.000E-05 08:06:58.140 1.500E-01 0.500 F 0.067 -0.248 +05° 30' 51.50" 1.000E-01 0.500 F 0.087 0.015 18.2 R 0.70 -0.21 o 691 0.51 Yes Yes
2018BN6 O C K 2018-01-27.31011 1.000E-05 08:06:57.930 1.500E-01 0.500 F 0.067 0.097 +05° 31' 30.90" 1.000E-01 0.500 F 0.087 -0.238 18.4 R 0.70 -0.02 o 691 0.52 Yes Yes
2017YQ3 O C K 2018-01-27.31283 1.000E-05 09:02:53.840 1.500E-01 0.500 F 0.146 -0.029 +04° 35' 51.70" 1.000E-01 0.500 F 0.175 0.090 o 691 0.19 Yes No
2017YQ3 O C K 2018-01-27.32267 1.000E-05 09:02:52.780 1.500E-01 0.500 F 0.146 0.074 +04° 35' 56.10" 1.000E-01 0.500 F 0.175 0.321 o 691 0.67 Yes No
2017YQ3 O C K 2018-01-27.33251 1.000E-05 09:02:51.680 1.500E-01 0.500 F 0.146 -0.417 +04° 36' 00.00" 1.000E-01 0.500 F 0.175 0.053 o 691 0.87 Yes No
2017XB2 O C 2018-01-27.34562 1.000E-05 13:23:06.370 1.500E-01 0.500 F 0.166 -0.125 +22° 54' 53.30" 1.000E-01 0.500 F 0.236 -0.088 19.4 R 0.70 0.60 o 691 0.31 Yes Yes
2017XB2 O C 2018-01-27.34695 1.000E-05 13:23:06.380 1.500E-01 0.500 F 0.166 0.322 +22° 54' 49.50" 1.000E-01 0.500 F 0.236 0.135 18.9 R 0.70 0.10 o 691 0.70 Yes Yes
2017XB2 O C 2018-01-27.34827 1.000E-05 13:23:06.350 1.500E-01 0.500 F 0.166 0.215 +22° 54' 45.30" 1.000E-01 0.500 F 0.236 -0.072 19.4 R 0.70 0.60 o 691 0.45 Yes Yes
2018BG1 O C K 2018-01-27.36229 1.000E-05 08:51:32.160 1.500E-01 0.500 F 0.055 0.361 +15° 22' 24.50" 1.000E-01 0.500 F 0.212 0.035 18.7 R 0.70 0.69 o 691 0.81 Yes Yes
2018BG1 O C K 2018-01-27.36509 1.000E-05 08:51:36.450 1.500E-01 0.500 F 0.055 -0.253 +15° 22' 57.50" 1.000E-01 0.500 F 0.212 0.178 18.7 R 0.70 0.69 o 691 0.67 Yes Yes
2018BG1 O C K 2018-01-27.36694 1.000E-05 08:51:39.310 1.500E-01 0.500 F 0.055 -0.291 +15° 23' 19.00" 1.000E-01 0.500 F 0.212 -0.011 18.6 R 0.70 0.59 o 691 0.65 Yes Yes
2018AF3 O C K 2018-01-27.38572 1.000E-05 08:25:33.390 1.500E-01 0.500 F 0.046 -0.107 +15° 09' 40.30" 1.000E-01 0.500 F 0.208 0.197 o 691 0.46 Yes No
2018AF3 O C K 2018-01-27.39548 1.000E-05 08:25:32.210 1.500E-01 0.500 F 0.046 0.091 +15° 09' 56.90" 1.000E-01 0.500 F 0.208 -0.252 o 691 0.55 Yes No
2018AF3 O C K 2018-01-27.40523 1.000E-05 08:25:31.030 1.500E-01 0.500 F 0.046 0.223 +15° 10' 14.00" 1.000E-01 0.500 F 0.208 -0.163 o 691 0.57 Yes No
2018BK1 O C K 2018-01-27.41559 1.000E-05 08:30:11.300 1.500E-01 0.500 F 0.167 -0.336 +06° 56' 03.30" 1.000E-01 0.500 F 0.127 0.308 o 691 0.91 Yes No
2018BK1 O C K 2018-01-27.41938 1.000E-05 08:30:10.650 1.500E-01 0.500 F 0.167 -0.047 +06° 56' 00.20" 1.000E-01 0.500 F 0.127 0.202 o 691 0.42 Yes No
2018BK1 O C K 2018-01-27.42317 1.000E-05 08:30:09.980 1.500E-01 0.500 F 0.167 -0.059 +06° 55' 57.00" 1.000E-01 0.500 F 0.127 -0.004 o 691 0.12 Yes No
2006AL4 O C K 2018-01-27.43895 1.000E-05 11:22:05.580 1.500E-01 0.500 F 0.083 0.277 +27° 45' 15.30" 1.000E-01 0.500 F 0.175 0.581 o 691 1.39 Yes No
2004CK39 O C 2018-01-27.43895 1.000E-05 11:22:52.770 1.500E-01 0.500 F 0.104 -0.516 +27° 25' 44.30" 1.000E-01 0.500 F 0.261 0.127 19.6 V 0.70 0.15 o 691 1.07 Yes Yes
2004CK39 O C 2018-01-27.44192 1.000E-05 11:22:52.860 1.500E-01 0.500 F 0.104 -0.389 +27° 25' 48.00" 1.000E-01 0.500 F 0.261 0.071 19.4 V 0.70 -0.05 o 691 0.80 Yes Yes
2006AL4 O C K 2018-01-27.44487 1.000E-05 11:22:10.970 1.500E-01 0.500 F 0.083 0.837 +27° 44' 48.50" 1.000E-01 0.500 F 0.175 -0.428 o 691 2.05 Yes No
2004CK39 O C 2018-01-27.44487 1.000E-05 11:22:52.930 1.500E-01 0.500 F 0.104 -0.520 +27° 25' 51.20" 1.000E-01 0.500 F 0.261 -0.459 19.9 V 0.70 0.45 o 691 1.40 Yes Yes
2007PV27 O C K 2018-01-27.47252 1.000E-05 16:15:16.720 1.500E-01 0.500 F 0.270 -0.677 +03° 44' 01.10" 1.000E-01 0.500 F 0.137 0.296 o 691 1.57 Yes No
2007PV27 O C K 2018-01-27.47475 1.000E-05 16:15:15.930 1.500E-01 0.500 F 0.270 0.646 +03° 43' 44.50" 1.000E-01 0.500 F 0.137 0.197 o 691 1.56 Yes No
2007PV27 O C K 2018-01-27.47698 1.000E-05 16:15:15.060 1.500E-01 0.500 F 0.270 0.781 +03° 43' 27.40" 1.000E-01 0.500 F 0.137 -0.399 o 691 1.86 Yes No
2017YS8 O C 2018-01-27.47976 1.000E-05 15:05:26.830 1.500E-01 0.500 F 0.180 0.026 +25° 14' 39.10" 1.000E-01 0.500 F 0.110 0.032 17.7 R 0.70 0.11 o 691 0.09 Yes Yes
2017YS8 O C 2018-01-27.48199 1.000E-05 15:05:27.970 1.500E-01 0.500 F 0.180 0.242 +25° 14' 24.10" 1.000E-01 0.500 F 0.110 0.183 17.6 R 0.70 0.01 o 691 0.62 Yes Yes
2017YS8 O C 2018-01-27.48534 1.000E-05 15:05:29.630 1.500E-01 0.500 F 0.180 -0.143 +25° 14' 01.30" 1.000E-01 0.500 F 0.110 0.160 17.6 R 0.70 0.01 o 691 0.44 Yes Yes
2018BK3 O C K 2018-01-27.49136 1.000E-05 12:06:42.900 1.500E-01 0.500 F 0.310 0.363 -16° 57' 37.10" 1.000E-01 0.500 F 0.034 -0.092 o 691 0.76 Yes No
2018BK3 O C K 2018-01-27.50564 1.000E-05 12:06:42.300 1.500E-01 0.500 F 0.310 -1.686 -16° 58' 25.60" 1.000E-01 0.500 F 0.034 -0.778 o 691 3.63 No No
2018AJ O C 2018-01-27.51261 1.000E-05 12:25:23.180 1.500E-01 0.500 F 0.486 0.186 -31° 03' 40.50" 1.000E-01 0.500 F 0.303 -0.076 17.3 R 0.70 -0.56 o 691 0.42 Yes Yes
2018AJ O C 2018-01-27.51447 1.000E-05 12:25:24.950 1.500E-01 0.500 F 0.486 0.026 -31° 04' 18.70" 1.000E-01 0.500 F 0.303 -0.002 17.2 R 0.70 -0.66 o 691 0.05 Yes Yes
2018AJ O C 2018-01-27.51727 1.000E-05 12:25:27.660 1.500E-01 0.500 F 0.486 0.354 -31° 05' 16.40" 1.000E-01 0.500 F 0.303 -0.181 17.6 R 0.70 -0.27 o 691 0.83 Yes Yes
2018AL13 O C K 2018-01-27.52097 1.000E-05 13:06:33.020 1.500E-01 0.500 F 0.226 0.429 +02° 11' 30.50" 1.000E-01 0.500 F 0.283 0.051 o 691 0.87 Yes No
2018AL13 O C K 2018-01-27.52960 1.000E-05 13:06:35.240 1.500E-01 0.500 F 0.271 -0.499 +02° 11' 24.60" 1.000E-01 0.500 F 0.271 -0.055 o 691 1.01 Yes No
2018AL13 O C K 2018-01-27.53825 1.000E-05 13:06:37.560 1.500E-01 0.500 F 0.271 0.025 +02° 11' 18.60" 1.000E-01 0.500 F 0.271 -0.258 o 691 0.52 Yes No
2017YC8 O C 2018-01-27.54715 1.000E-05 13:21:45.100 1.500E-01 0.500 F 0.100 -0.062 -20° 12' 52.60" 1.000E-01 0.500 F -0.185 0.021 18.6 V 0.70 -0.01 o 691 0.13 Yes Yes
2017YC8 O C 2018-01-27.54938 1.000E-05 13:21:45.610 1.500E-01 0.500 F 0.100 -0.317 -20° 13' 11.70" 1.000E-01 0.500 F -0.185 0.268 18.5 V 0.70 -0.11 o 691 0.85 Yes Yes
2017YC8 O C 2018-01-27.55160 1.000E-05 13:21:46.160 1.500E-01 0.500 F 0.100 0.023 -20° 13' 31.20" 1.000E-01 0.500 F -0.185 0.026 18.7 V 0.70 0.09 o 691 0.07 Yes Yes
2018AM12 O C 2018-01-28.08887 1.000E-05 03:36:40.490 1.500E-01 0.500 F -0.290 -0.366 -29° 48' 13.60" 1.000E-01 0.500 F 0.154 0.130 19.9 V 0.70 0.39 o 691 0.78 Yes Yes
2018AM12 O C 2018-01-28.09861 1.000E-05 03:36:43.160 1.500E-01 0.500 F -0.290 0.115 -29° 48' 37.60" 1.000E-01 0.500 F 0.154 0.093 19.9 V 0.70 0.39 o 691 0.30 Yes Yes
2018AM12 O C 2018-01-28.10837 1.000E-05 03:36:45.740 1.500E-01 0.500 F -0.290 -0.609 -29° 49' 01.20" 1.000E-01 0.500 F 0.154 0.372 19.7 V 0.70 0.19 o 691 1.44 Yes Yes
2018BG1 O C K 2018-01-28.13019 1.000E-05 09:12:20.140 1.500E-01 0.500 F 0.089 2.111 +17° 42' 51.40" 1.000E-01 0.500 F 0.214 -0.046 o 691 4.03 No No
2018BG1 O C K 2018-01-28.13679 1.000E-05 09:12:30.180 1.500E-01 0.500 F 0.089 2.532 +17° 44' 02.10" 1.000E-01 0.500 F 0.214 0.248 o 691 4.84 No No
2018BG1 O C K 2018-01-28.14340 1.000E-05 09:12:40.170 1.500E-01 0.500 F 0.089 2.490 +17° 45' 12.20" 1.000E-01 0.500 F 0.214 -0.044 o 691 4.75 No No
2018BG3 O C K 2018-01-28.15118 1.000E-05 09:37:24.790 1.500E-01 0.500 F 0.100 -0.112 +20° 00' 51.80" 1.000E-01 0.500 F 0.478 -0.297 o 691 0.67 Yes No
2018BG3 O C K 2018-01-28.15654 1.000E-05 09:37:23.430 1.500E-01 0.500 F 0.100 -0.245 +19° 59' 46.90" 1.000E-01 0.500 F 0.478 -0.257 o 691 0.75 Yes No
2018BG3 O C K 2018-01-28.16191 1.000E-05 09:37:22.050 1.500E-01 0.500 F 0.100 -0.475 +19° 58' 41.60" 1.000E-01 0.500 F 0.478 -0.399 o 691 1.32 Yes No
2017YF7 O C K 2018-01-28.16898 1.000E-05 09:15:59.040 1.500E-01 0.500 F 0.141 -0.087 +00° 42' 33.90" 1.000E-01 0.500 F 0.178 -0.089 o 691 0.25 Yes No
2017YF7 O C K 2018-01-28.17817 1.000E-05 09:15:58.310 1.500E-01 0.500 F 0.141 0.035 +00° 42' 02.30" 1.000E-01 0.500 F 0.178 -0.208 o 691 0.43 Yes No
2017YF7 O C K 2018-01-28.18736 1.000E-05 09:15:57.540 1.500E-01 0.500 F 0.141 -0.244 +00° 41' 31.00" 1.000E-01 0.500 F 0.178 -0.031 o 691 0.50 Yes No
2016CW31 O C K 2018-01-28.19727 1.000E-05 10:38:01.580 1.500E-01 0.500 F 0.142 -0.237 +24° 03' 42.90" 1.000E-01 0.500 F 0.286 0.079 o 691 0.50 Yes No
2016CW31 O C K 2018-01-28.20605 1.000E-05 10:38:00.920 1.500E-01 0.500 F 0.142 -0.712 +24° 03' 24.30" 1.000E-01 0.500 F 0.286 0.226 o 691 1.50 Yes No
2016CW31 O C K 2018-01-28.21481 1.000E-05 10:38:00.310 1.500E-01 0.500 F 0.142 -0.445 +24° 03' 05.40" 1.000E-01 0.500 F 0.286 0.050 o 691 0.90 Yes No
2018BL1 O C K 2018-01-28.22358 1.000E-05 10:04:37.810 1.500E-01 0.500 F 0.085 0.723 +15° 23' 09.50" 1.000E-01 0.500 F 0.271 -0.159 o 691 1.50 Yes No
2018BL1 O C K 2018-01-28.24226 1.000E-05 10:04:43.120 1.500E-01 0.500 F 0.085 0.729 +15° 23' 45.20" 1.000E-01 0.500 F 0.271 0.176 o 691 1.51 Yes No
2018BL1 O C K 2018-01-28.26094 1.000E-05 10:04:48.420 1.500E-01 0.500 F 0.085 0.884 +15° 24' 20.20" 1.000E-01 0.500 F 0.271 -0.167 o 691 1.82 Yes No
2018AM13 O C K 2018-01-28.27987 1.000E-05 09:49:40.530 1.500E-01 0.500 F 0.109 -1.225 +25° 42' 00.50" 1.000E-01 0.500 F 0.295 -0.019 17.6 R 0.70 -2.48 o 691 2.52 Yes No
2018AM13 O C K 2018-01-28.30414 1.000E-05 09:49:37.600 1.500E-01 0.500 F 0.092 -1.983 +25° 43' 45.30" 1.000E-01 0.500 F 0.261 -0.045 16.9 R 0.70 -3.18 o 691 3.87 No No
2018AM13 O C K 2018-01-28.32829 1.000E-05 09:49:34.740 1.500E-01 0.500 F 0.092 -1.756 +25° 45' 28.90" 1.000E-01 0.500 F 0.261 -0.420 17.6 R 0.70 -2.48 o 691 3.51 No No
2017XB2 O C 2018-01-28.35506 1.000E-05 13:22:50.060 1.500E-01 0.500 F 0.181 -0.103 +22° 02' 09.30" 1.000E-01 0.500 F 0.281 0.100 19.0 R 0.70 0.27 o 691 0.29 Yes Yes
2017XB2 O C 2018-01-28.35878 1.000E-05 13:22:49.980 1.500E-01 0.500 F 0.181 -0.057 +22° 01' 57.30" 1.000E-01 0.500 F 0.281 -0.045 19.0 R 0.70 0.27 o 691 0.15 Yes Yes
2017XB2 O C 2018-01-28.36126 1.000E-05 13:22:49.920 1.500E-01 0.500 F 0.181 -0.115 +22° 01' 49.40" 1.000E-01 0.500 F 0.281 -0.038 18.8 R 0.70 0.07 o 691 0.24 Yes Yes
2011MU O C 2018-01-28.36249 1.000E-05 13:39:24.430 1.500E-01 0.500 F 0.097 -0.019 +13° 12' 33.30" 1.000E-01 0.500 F 0.147 0.251 19.4 R 0.70 0.38 o 691 0.52 Yes Yes
2011MU O C 2018-01-28.36673 1.000E-05 13:39:22.490 1.500E-01 0.500 F 0.097 0.028 +13° 12' 51.20" 1.000E-01 0.500 F 0.147 -0.502 19.4 R 0.70 0.38 o 691 1.03 Yes Yes
2011MU O C 2018-01-28.37096 1.000E-05 13:39:20.560 1.500E-01 0.500 F 0.097 0.174 +13° 13' 10.20" 1.000E-01 0.500 F 0.147 -0.107 19.6 R 0.70 0.58 o 691 0.42 Yes Yes
2009CS5 O C K 2018-01-28.43220 1.000E-05 10:07:30.620 1.500E-01 0.500 F 0.108 -0.757 +16° 52' 16.10" 1.000E-01 0.500 F 0.285 -0.292 o 691 1.64 Yes No
2009CS5 O C K 2018-01-28.44830 1.000E-05 10:07:28.110 1.500E-01 0.500 F 0.108 -0.588 +16° 52' 11.50" 1.000E-01 0.500 F 0.285 0.023 o 691 1.19 Yes No
2009CS5 O C K 2018-01-28.46437 1.000E-05 10:07:25.620 1.500E-01 0.500 F 0.108 -0.219 +16° 52' 06.00" 1.000E-01 0.500 F 0.285 -0.542 o 691 1.18 Yes No
2015FH120 O C 2018-01-28.50286 1.000E-05 17:04:35.890 1.500E-01 0.500 F 0.018 -0.466 +23° 52' 18.20" 1.000E-01 0.500 F 0.161 -0.132 18.6 R 0.70 0.19 o 691 0.98 Yes Yes
2015FH120 O C 2018-01-28.50613 1.000E-05 17:04:34.730 1.500E-01 0.500 F 0.018 -0.499 +23° 52' 23.50" 1.000E-01 0.500 F 0.161 0.285 18.7 R 0.70 0.29 o 691 1.16 Yes Yes
2015FH120 O C 2018-01-28.50940 1.000E-05 17:04:33.610 1.500E-01 0.500 F 0.018 0.028 +23° 52' 28.10" 1.000E-01 0.500 F 0.161 0.005 18.8 R 0.70 0.39 o 691 0.06 Yes Yes
2017TQ3 O C K 2018-01-28.51273 1.000E-05 15:32:31.760 1.500E-01 0.500 F 0.128 -1.125 +26° 23' 49.40" 1.000E-01 0.500 F 0.229 0.545 o 691 2.61 Yes No
2017TQ3 O C K 2018-01-28.52971 1.000E-05 15:32:29.870 1.500E-01 0.500 F 0.128 -1.221 +26° 24' 02.40" 1.000E-01 0.500 F 0.229 -0.452 o 691 2.73 Yes No
2017TQ3 O C K 2018-01-28.54669 1.000E-05 15:32:28.060 1.500E-01 0.500 F 0.128 -0.153 +26° 24' 16.20" 1.000E-01 0.500 F 0.229 -0.565 o 691 1.22 Yes No
2018AG13 O C K 2018-02-04.08428 1.000E-05 01:59:00.700 1.500E-01 0.500 F -0.261 0.131 +13° 40' 24.50" 1.000E-01 0.500 F 0.187 -0.702 19.8 R 0.70 -0.97 o 691 1.49 Yes Yes
2017VX1 O C K 2018-02-04.09061 1.000E-05 01:09:29.100 1.500E-01 0.500 F -0.245 -0.126 -02° 06' 10.50" 1.000E-01 0.500 F 0.298 -0.318 19.8 R 0.70 0.23 o 691 0.70 Yes Yes
2018AG13 O C K 2018-02-04.10625 1.000E-05 01:59:04.380 1.500E-01 0.500 F -0.261 0.161 +13° 41' 45.90" 1.000E-01 0.500 F 0.187 0.274 19.6 R 0.70 -1.17 o 691 0.66 Yes Yes
2018AG13 O C K 2018-02-04.12811 1.000E-05 01:59:08.020 1.500E-01 0.500 F -0.261 -0.220 +13° 43' 05.30" 1.000E-01 0.500 F 0.187 -0.296 19.6 R 0.70 -1.17 o 691 0.77 Yes Yes
2017VX1 O C K 2018-02-04.13441 1.000E-05 01:09:30.820 1.500E-01 0.500 F -0.245 -0.542 -02° 10' 32.00" 1.000E-01 0.500 F 0.298 -0.177 19.4 R 0.70 -0.17 o 691 1.16 Yes Yes
2002LX O C 2018-02-04.15202 1.000E-05 03:29:35.100 1.500E-01 0.500 F -0.288 -0.828 -01° 37' 34.10" 1.000E-01 0.500 F 0.052 0.028 20.7 V 0.70 1.02 o 691 1.74 Yes Yes
2017SS19 O C 2018-02-04.15453 1.000E-05 04:26:23.390 1.500E-01 0.500 F -0.216 -0.266 +00° 22' 44.80" 1.000E-01 0.500 F 0.290 0.027 20.3 V 0.70 0.24 o 691 0.54 Yes Yes
2002LX O C 2018-02-04.15723 1.000E-05 03:29:32.940 1.500E-01 0.500 F -0.288 -0.322 -01° 37' 46.50" 1.000E-01 0.500 F 0.052 0.266 20.3 V 0.70 0.62 o 691 0.88 Yes Yes
2017SS19 O C 2018-02-04.15968 1.000E-05 04:26:24.730 1.500E-01 0.500 F -0.216 -0.279 +00° 22' 48.60" 1.000E-01 0.500 F 0.290 0.149 19.8 V 0.70 -0.26 o 691 0.64 Yes Yes
2002LX O C 2018-02-04.16238 1.000E-05 03:29:30.800 1.500E-01 0.500 F -0.288 0.090 -01° 37' 59.00" 1.000E-01 0.500 F 0.052 0.260 20.3 V 0.70 0.62 o 691 0.58 Yes Yes
2017SS19 O C 2018-02-04.16484 1.000E-05 04:26:26.080 1.500E-01 0.500 F -0.216 -0.183 +00° 22' 52.10" 1.000E-01 0.500 F 0.290 -0.036 20.0 V 0.70 -0.06 o 691 0.38 Yes Yes
2018BY2 O C 2018-02-04.17129 1.000E-05 05:23:14.020 1.500E-01 0.500 F -0.159 -0.251 -20° 05' 03.00" 1.000E-01 0.500 F -0.294 -0.211 19.4 V 0.70 -0.20 o 691 0.66 Yes Yes
2018BZ2 O C K 2018-02-04.17319 1.000E-05 05:19:43.260 1.500E-01 0.500 F -0.236 -0.431 -02° 55' 09.40" 1.000E-01 0.500 F 0.017 -0.057 o 691 0.87 Yes No
2016SA O C K 2018-02-04.17743 1.000E-05 06:18:24.270 1.500E-01 0.500 F -0.062 -0.083 -25° 13' 40.30" 1.000E-01 0.500 F 0.063 0.081 o 691 0.24 Yes No

[1-200] [201-400] [401-600] [601-800] [801-1000] [1001-1200] [1201-1400] [1401-1600] [1601-1800] [1801-2000] [2001-2200] [2201-2400] [2401-2600] [2601-2800] [2801-3000] [3001-3200] [3201-3400] [3401-3600] [3601-3800] [3801-4000] [4001-4200] [4201-4400] [4401-4600] [4601-4800] [4801-5000] [5001-5200] [5201-5400] [5401-5600] [5601-5800] [5801-6000] [6001-6200] [6201-6400] [6401-6600] [6601-6800] [6801-7000] [7001-7200] [7201-7400] [7401-7600] [7601-7800] [7801-8000] [8001-8200] [8201-8400] [8401-8600] [8601-8800] [8801-9000] [9001-9200] [9201-9400] [9401-9600] [9601-9800] [9801-10000] [10001-10200] [10201-10400] [10401-10600] [10601-10800] [10801-11000] [11001-11200] [11201-11400] [11401-11600] [11601-11800] [11801-12000] [12001-12200] [12201-12400] [12401-12600] [12601-12800] [12801-13000] [13001-13200] [13201-13400] [13401-13600] [13601-13800] [13801-14000] [14001-14200] [14201-14400] [14401-14600] [14601-14800] [14801-15000] [15001-15200] [15201-15400] [15401-15600] [15601-15800] [15801-16000] [16001-16200] [16201-16400] [16401-16600] [16601-16800] [16801-17000] [17001-17200] [17201-17400] [17401-17600] [17601-17800] [17801-18000] [18001-18200] [18201-18400] [18401-18600] [18601-18800] [18801-19000] [19001-19200] [19201-19400] [19401-19600] [19601-19800] [19801-20000] [20001-20200] [20201-20400] [20401-20600] [20601-20800] [20801-21000] [21001-21200] [21201-21400] [21401-21600] [21601-21800] [21801-22000] [22001-22200] [22201-22400] [22401-22600] [22601-22800] [22801-23000] [23001-23200] [23201-23400] [23401-23600] [23601-23800] [23801-24000] [24001-24200] [24201-24400] [24401-24600] [24601-24800] [24801-25000] [25001-25200] [25201-25400] [25401-25600] [25601-25800] [25801-26000] [26001-26200] [26201-26400] [26401-26600] [26601-26800] [26801-27000] [27001-27200] [27201-27400] [27401-27600] [27601-27800] [27801-28000] [28001-28200] [28201-28400] [28401-28600] [28601-28800] [28801-29000] [29001-29200] [29201-29400] [29401-29600] [29601-29800] [29801-30000] [30001-30200] [30201-30400] [30401-30600] [30601-30800] [30801-31000] [31001-31200] [31201-31400] [31401-31600] [31601-31800] [31801-32000] [32001-32200] [32201-32400] [32401-32600] [32601-32800] [32801-33000] [33001-33200] [33201-33400] [33401-33600] [33601-33800] [33801-34000] [34001-34200] [34201-34400] [34401-34600] [34601-34800] [34801-35000] [35001-35200] [35201-35400] [35401-35600] [35601-35800] [35801-36000] [36001-36200] [36201-36400] [36401-36600] [36601-36800] [36801-37000] [37001-37200] [37201-37400] [37401-37600] [37601-37800] [37801-38000] [38001-38200] [38201-38400] [38401-38600] [38601-38800] [38801-39000] [39001-39200] [39201-39400] [39401-39600] [39601-39800] [39801-40000] [40001-40200] [40201-40400] [40401-40600] [40601-40800] [40801-41000] [41001-41200] [41201-41400] [41401-41600] [41601-41800] [41801-42000] [42001-42200] [42201-42400] [42401-42600] [42601-42800] [42801-43000] [43001-43200] [43201-43400] [43401-43600] [43601-43800] [43801-44000] [44001-44200] [44201-44400] [44401-44600] [44601-44800] [44801-45000] [45001-45200] [45201-45400] [45401-45600] [45601-45800] [45801-46000] [46001-46200] [46201-46400] [46401-46600] [46601-46800] [46801-47000] [47001-47200] [47201-47400] [47401-47600] [47601-47800] [47801-48000] [48001-48200] [48201-48400] [48401-48600] [48601-48800] [48801-49000] [49001-49200] [49201-49400] [49401-49600] [49601-49800] [49801-50000] [50001-50200] [50201-50400] [50401-50600] [50601-50741]